sensor_id;sensor_type;location;lat;lon;timestamp;P1;durP1;ratioP1;P2;durP2;ratioP2
51686;SDS011;37774;52.192;4.584;2023-04-01T00:01:25;47.88;;;8.93;;
51686;SDS011;37774;52.192;4.584;2023-04-01T00:04:11;53.30;;;8.43;;
51686;SDS011;37774;52.192;4.584;2023-04-01T00:06:57;55.22;;;10.75;;
51686;SDS011;37774;52.192;4.584;2023-04-01T00:09:43;53.55;;;9.25;;
51686;SDS011;37774;52.192;4.584;2023-04-01T00:12:28;46.35;;;7.35;;
51686;SDS011;37774;52.192;4.584;2023-04-01T00:15:13;44.22;;;8.20;;
51686;SDS011;37774;52.192;4.584;2023-04-01T00:18:00;43.92;;;6.70;;
51686;SDS011;37774;52.192;4.584;2023-04-01T00:20:47;47.10;;;7.32;;
51686;SDS011;37774;52.192;4.584;2023-04-01T00:23:34;44.13;;;7.35;;
51686;SDS011;37774;52.192;4.584;2023-04-01T00:26:20;44.20;;;7.78;;
51686;SDS011;37774;52.192;4.584;2023-04-01T00:29:05;30.42;;;5.25;;
51686;SDS011;37774;52.192;4.584;2023-04-01T00:31:51;28.23;;;5.25;;
51686;SDS011;37774;52.192;4.584;2023-04-01T00:34:38;48.83;;;5.88;;
51686;SDS011;37774;52.192;4.584;2023-04-01T00:37:24;35.30;;;5.35;;
51686;SDS011;37774;52.192;4.584;2023-04-01T00:40:18;30.98;;;6.20;;
51686;SDS011;37774;52.192;4.584;2023-04-01T00:43:10;27.10;;;6.43;;
51686;SDS011;37774;52.192;4.584;2023-04-01T00:48:42;23.35;;;3.97;;
51686;SDS011;37774;52.192;4.584;2023-04-01T00:51:33;16.98;;;4.45;;
51686;SDS011;37774;52.192;4.584;2023-04-01T00:54:21;26.35;;;4.32;;
51686;SDS011;37774;52.192;4.584;2023-04-01T00:59:56;12.77;;;3.50;;
51686;SDS011;37774;52.192;4.584;2023-04-01T01:02:43;16.98;;;4.50;;
51686;SDS011;37774;52.192;4.584;2023-04-01T01:05:33;17.40;;;4.63;;
51686;SDS011;37774;52.192;4.584;2023-04-01T01:08:34;21.20;;;5.00;;
51686;SDS011;37774;52.192;4.584;2023-04-01T01:11:36;24.90;;;4.03;;
51686;SDS011;37774;52.192;4.584;2023-04-01T01:14:27;29.73;;;5.25;;
51686;SDS011;37774;52.192;4.584;2023-04-01T01:17:25;25.65;;;5.13;;
51686;SDS011;37774;52.192;4.584;2023-04-01T01:23:53;39.28;;;6.53;;
51686;SDS011;37774;52.192;4.584;2023-04-01T01:26:56;30.88;;;6.15;;
51686;SDS011;37774;52.192;4.584;2023-04-01T01:29:52;22.17;;;5.78;;
51686;SDS011;37774;52.192;4.584;2023-04-01T01:32:55;16.35;;;5.00;;
51686;SDS011;37774;52.192;4.584;2023-04-01T01:36:08;16.77;;;4.80;;
51686;SDS011;37774;52.192;4.584;2023-04-01T01:38:58;14.50;;;3.50;;
51686;SDS011;37774;52.192;4.584;2023-04-01T01:41:43;13.40;;;3.10;;
51686;SDS011;37774;52.192;4.584;2023-04-01T01:44:33;11.13;;;3.30;;
51686;SDS011;37774;52.192;4.584;2023-04-01T01:47:20;9.35;;;2.83;;
51686;SDS011;37774;52.192;4.584;2023-04-01T01:50:08;8.88;;;2.72;;
51686;SDS011;37774;52.192;4.584;2023-04-01T01:53:04;8.25;;;2.38;;
51686;SDS011;37774;52.192;4.584;2023-04-01T01:55:50;8.68;;;3.40;;
51686;SDS011;37774;52.192;4.584;2023-04-01T01:58:36;10.30;;;3.47;;
51686;SDS011;37774;52.192;4.584;2023-04-01T02:01:26;13.38;;;3.65;;
51686;SDS011;37774;52.192;4.584;2023-04-01T02:04:15;16.67;;;5.13;;
51686;SDS011;37774;52.192;4.584;2023-04-01T02:07:02;33.47;;;6.07;;
51686;SDS011;37774;52.192;4.584;2023-04-01T02:09:51;38.53;;;6.93;;
51686;SDS011;37774;52.192;4.584;2023-04-01T02:15:23;35.88;;;7.40;;
51686;SDS011;37774;52.192;4.584;2023-04-01T02:18:14;38.35;;;8.35;;
51686;SDS011;37774;52.192;4.584;2023-04-01T02:21:02;47.10;;;8.10;;
51686;SDS011;37774;52.192;4.584;2023-04-01T02:23:50;43.55;;;8.25;;
51686;SDS011;37774;52.192;4.584;2023-04-01T02:26:40;46.65;;;10.52;;
51686;SDS011;37774;52.192;4.584;2023-04-01T02:29:26;20.15;;;7.68;;
51686;SDS011;37774;52.192;4.584;2023-04-01T02:32:12;31.38;;;7.75;;
51686;SDS011;37774;52.192;4.584;2023-04-01T02:34:58;21.58;;;5.88;;
51686;SDS011;37774;52.192;4.584;2023-04-01T02:37:48;20.85;;;6.53;;
51686;SDS011;37774;52.192;4.584;2023-04-01T02:40:42;13.80;;;6.10;;
51686;SDS011;37774;52.192;4.584;2023-04-01T02:43:31;12.02;;;4.53;;
51686;SDS011;37774;52.192;4.584;2023-04-01T02:46:16;10.73;;;4.43;;
51686;SDS011;37774;52.192;4.584;2023-04-01T02:49:02;7.70;;;3.33;;
51686;SDS011;37774;52.192;4.584;2023-04-01T02:51:48;5.70;;;2.85;;
51686;SDS011;37774;52.192;4.584;2023-04-01T02:54:34;10.95;;;4.18;;
51686;SDS011;37774;52.192;4.584;2023-04-01T02:57:19;8.90;;;3.30;;
51686;SDS011;37774;52.192;4.584;2023-04-01T03:00:07;12.27;;;4.45;;
51686;SDS011;37774;52.192;4.584;2023-04-01T03:02:54;14.05;;;5.65;;
51686;SDS011;37774;52.192;4.584;2023-04-01T03:05:40;16.83;;;6.88;;
51686;SDS011;37774;52.192;4.584;2023-04-01T03:08:25;16.63;;;5.75;;
51686;SDS011;37774;52.192;4.584;2023-04-01T03:11:11;17.25;;;5.90;;
51686;SDS011;37774;52.192;4.584;2023-04-01T03:13:57;29.88;;;8.30;;
51686;SDS011;37774;52.192;4.584;2023-04-01T03:16:44;36.88;;;9.15;;
51686;SDS011;37774;52.192;4.584;2023-04-01T03:19:29;30.38;;;9.20;;
51686;SDS011;37774;52.192;4.584;2023-04-01T03:22:15;25.65;;;8.05;;
51686;SDS011;37774;52.192;4.584;2023-04-01T03:25:03;24.30;;;8.57;;
51686;SDS011;37774;52.192;4.584;2023-04-01T03:27:49;20.20;;;7.55;;
51686;SDS011;37774;52.192;4.584;2023-04-01T03:30:34;36.10;;;8.68;;
51686;SDS011;37774;52.192;4.584;2023-04-01T03:33:21;46.03;;;10.10;;
51686;SDS011;37774;52.192;4.584;2023-04-01T03:36:06;31.35;;;9.57;;
51686;SDS011;37774;52.192;4.584;2023-04-01T03:38:52;22.73;;;7.70;;
51686;SDS011;37774;52.192;4.584;2023-04-01T03:41:37;29.63;;;8.20;;
51686;SDS011;37774;52.192;4.584;2023-04-01T03:44:23;24.92;;;8.40;;
51686;SDS011;37774;52.192;4.584;2023-04-01T03:47:08;32.92;;;8.60;;
51686;SDS011;37774;52.192;4.584;2023-04-01T03:49:55;32.22;;;9.20;;
51686;SDS011;37774;52.192;4.584;2023-04-01T03:52:40;37.85;;;10.55;;
51686;SDS011;37774;52.192;4.584;2023-04-01T03:55:25;29.60;;;8.90;;
51686;SDS011;37774;52.192;4.584;2023-04-01T03:58:11;26.25;;;10.15;;
51686;SDS011;37774;52.192;4.584;2023-04-01T04:00:56;38.25;;;8.95;;
51686;SDS011;37774;52.192;4.584;2023-04-01T04:03:42;28.45;;;9.35;;
51686;SDS011;37774;52.192;4.584;2023-04-01T04:09:16;22.10;;;8.23;;
51686;SDS011;37774;52.192;4.584;2023-04-01T04:12:01;20.23;;;8.20;;
51686;SDS011;37774;52.192;4.584;2023-04-01T04:14:49;22.27;;;7.60;;
51686;SDS011;37774;52.192;4.584;2023-04-01T04:17:34;43.63;;;9.05;;
51686;SDS011;37774;52.192;4.584;2023-04-01T04:20:20;33.30;;;8.27;;
51686;SDS011;37774;52.192;4.584;2023-04-01T04:23:07;33.45;;;8.02;;
51686;SDS011;37774;52.192;4.584;2023-04-01T04:25:53;26.52;;;8.88;;
51686;SDS011;37774;52.192;4.584;2023-04-01T04:28:39;33.47;;;9.48;;
51686;SDS011;37774;52.192;4.584;2023-04-01T04:31:25;28.05;;;9.18;;
51686;SDS011;37774;52.192;4.584;2023-04-01T04:34:10;33.17;;;10.25;;
51686;SDS011;37774;52.192;4.584;2023-04-01T04:36:56;43.97;;;11.90;;
51686;SDS011;37774;52.192;4.584;2023-04-01T04:39:43;36.92;;;10.57;;
51686;SDS011;37774;52.192;4.584;2023-04-01T04:42:28;41.38;;;10.00;;
51686;SDS011;37774;52.192;4.584;2023-04-01T04:45:14;34.80;;;9.70;;
51686;SDS011;37774;52.192;4.584;2023-04-01T04:48:00;35.42;;;10.40;;
51686;SDS011;37774;52.192;4.584;2023-04-01T04:50:45;43.25;;;9.95;;
51686;SDS011;37774;52.192;4.584;2023-04-01T04:53:32;39.50;;;11.40;;
51686;SDS011;37774;52.192;4.584;2023-04-01T04:56:20;42.85;;;11.98;;
51686;SDS011;37774;52.192;4.584;2023-04-01T04:59:06;28.95;;;9.90;;
51686;SDS011;37774;52.192;4.584;2023-04-01T05:01:51;28.50;;;8.45;;
51686;SDS011;37774;52.192;4.584;2023-04-01T05:04:37;33.88;;;8.15;;
51686;SDS011;37774;52.192;4.584;2023-04-01T05:07:22;34.17;;;8.85;;
51686;SDS011;37774;52.192;4.584;2023-04-01T05:10:08;24.10;;;7.15;;
51686;SDS011;37774;52.192;4.584;2023-04-01T05:12:55;28.75;;;8.98;;
51686;SDS011;37774;52.192;4.584;2023-04-01T05:15:41;34.53;;;8.57;;
51686;SDS011;37774;52.192;4.584;2023-04-01T05:18:26;44.40;;;10.55;;
51686;SDS011;37774;52.192;4.584;2023-04-01T05:21:12;43.30;;;9.05;;
51686;SDS011;37774;52.192;4.584;2023-04-01T05:23:58;33.90;;;8.63;;
51686;SDS011;37774;52.192;4.584;2023-04-01T05:26:43;32.55;;;9.65;;
51686;SDS011;37774;52.192;4.584;2023-04-01T05:29:30;36.53;;;9.82;;
51686;SDS011;37774;52.192;4.584;2023-04-01T05:32:16;44.22;;;9.82;;
51686;SDS011;37774;52.192;4.584;2023-04-01T05:35:01;26.35;;;8.85;;
51686;SDS011;37774;52.192;4.584;2023-04-01T05:37:47;33.90;;;9.50;;
51686;SDS011;37774;52.192;4.584;2023-04-01T05:40:32;26.27;;;8.32;;
51686;SDS011;37774;52.192;4.584;2023-04-01T05:43:18;20.55;;;7.35;;
51686;SDS011;37774;52.192;4.584;2023-04-01T05:46:05;29.50;;;7.63;;
51686;SDS011;37774;52.192;4.584;2023-04-01T05:48:50;26.95;;;9.20;;
51686;SDS011;37774;52.192;4.584;2023-04-01T05:51:35;36.22;;;9.38;;
51686;SDS011;37774;52.192;4.584;2023-04-01T05:54:21;32.40;;;9.48;;
51686;SDS011;37774;52.192;4.584;2023-04-01T05:57:07;37.67;;;11.18;;
51686;SDS011;37774;52.192;4.584;2023-04-01T05:59:52;26.10;;;9.52;;
51686;SDS011;37774;52.192;4.584;2023-04-01T06:02:40;46.40;;;10.18;;
51686;SDS011;37774;52.192;4.584;2023-04-01T06:05:27;35.75;;;10.10;;
51686;SDS011;37774;52.192;4.584;2023-04-01T06:08:15;37.30;;;9.68;;
51686;SDS011;37774;52.192;4.584;2023-04-01T06:11:04;38.15;;;10.60;;
51686;SDS011;37774;52.192;4.584;2023-04-01T06:14:16;26.02;;;9.98;;
51686;SDS011;37774;52.192;4.584;2023-04-01T06:17:14;31.50;;;8.20;;
51686;SDS011;37774;52.192;4.584;2023-04-01T06:20:11;39.13;;;10.00;;
51686;SDS011;37774;52.192;4.584;2023-04-01T06:23:16;28.60;;;7.57;;
51686;SDS011;37774;52.192;4.584;2023-04-01T06:26:12;47.20;;;11.32;;
51686;SDS011;37774;52.192;4.584;2023-04-01T06:29:12;34.58;;;10.30;;
51686;SDS011;37774;52.192;4.584;2023-04-01T06:35:42;45.53;;;10.88;;
51686;SDS011;37774;52.192;4.584;2023-04-01T06:38:46;49.13;;;10.23;;
51686;SDS011;37774;52.192;4.584;2023-04-01T06:41:44;40.17;;;9.55;;
51686;SDS011;37774;52.192;4.584;2023-04-01T06:44:54;26.70;;;10.00;;
51686;SDS011;37774;52.192;4.584;2023-04-01T06:47:54;30.65;;;9.25;;
51686;SDS011;37774;52.192;4.584;2023-04-01T06:50:51;34.38;;;8.85;;
51686;SDS011;37774;52.192;4.584;2023-04-01T06:53:42;29.95;;;9.25;;
51686;SDS011;37774;52.192;4.584;2023-04-01T06:56:34;47.35;;;11.27;;
51686;SDS011;37774;52.192;4.584;2023-04-01T06:59:24;31.30;;;9.93;;
51686;SDS011;37774;52.192;4.584;2023-04-01T07:02:16;33.95;;;9.43;;
51686;SDS011;37774;52.192;4.584;2023-04-01T07:05:10;32.28;;;9.27;;
51686;SDS011;37774;52.192;4.584;2023-04-01T07:07:59;38.83;;;9.13;;
51686;SDS011;37774;52.192;4.584;2023-04-01T07:10:48;35.53;;;8.90;;
51686;SDS011;37774;52.192;4.584;2023-04-01T07:13:39;28.70;;;7.70;;
51686;SDS011;37774;52.192;4.584;2023-04-01T07:16:29;28.13;;;9.02;;
51686;SDS011;37774;52.192;4.584;2023-04-01T07:19:20;23.33;;;7.60;;
51686;SDS011;37774;52.192;4.584;2023-04-01T07:22:14;26.80;;;7.65;;
51686;SDS011;37774;52.192;4.584;2023-04-01T07:25:11;29.95;;;7.93;;
51686;SDS011;37774;52.192;4.584;2023-04-01T07:28:00;22.27;;;6.63;;
51686;SDS011;37774;52.192;4.584;2023-04-01T07:30:50;27.70;;;6.68;;
51686;SDS011;37774;52.192;4.584;2023-04-01T07:33:44;42.72;;;8.82;;
51686;SDS011;37774;52.192;4.584;2023-04-01T07:36:36;25.33;;;8.70;;
51686;SDS011;37774;52.192;4.584;2023-04-01T07:39:30;29.38;;;8.75;;
51686;SDS011;37774;52.192;4.584;2023-04-01T07:42:27;26.90;;;7.13;;
51686;SDS011;37774;52.192;4.584;2023-04-01T07:45:22;33.25;;;8.30;;
51686;SDS011;37774;52.192;4.584;2023-04-01T07:48:18;20.35;;;6.38;;
51686;SDS011;37774;52.192;4.584;2023-04-01T07:51:09;22.20;;;7.72;;
51686;SDS011;37774;52.192;4.584;2023-04-01T07:54:01;26.73;;;6.95;;
51686;SDS011;37774;52.192;4.584;2023-04-01T07:56:51;31.40;;;8.80;;
51686;SDS011;37774;52.192;4.584;2023-04-01T07:59:48;22.65;;;7.80;;
51686;SDS011;37774;52.192;4.584;2023-04-01T08:02:54;24.60;;;8.43;;
51686;SDS011;37774;52.192;4.584;2023-04-01T08:05:54;20.13;;;8.10;;
51686;SDS011;37774;52.192;4.584;2023-04-01T08:08:45;18.02;;;6.57;;
51686;SDS011;37774;52.192;4.584;2023-04-01T08:11:43;23.88;;;7.93;;
51686;SDS011;37774;52.192;4.584;2023-04-01T08:14:41;26.80;;;9.07;;
51686;SDS011;37774;52.192;4.584;2023-04-01T08:17:40;21.65;;;7.85;;
51686;SDS011;37774;52.192;4.584;2023-04-01T08:20:34;28.85;;;9.55;;
51686;SDS011;37774;52.192;4.584;2023-04-01T08:23:25;39.95;;;7.97;;
51686;SDS011;37774;52.192;4.584;2023-04-01T08:26:16;20.27;;;7.45;;
51686;SDS011;37774;52.192;4.584;2023-04-01T08:29:11;25.58;;;6.32;;
51686;SDS011;37774;52.192;4.584;2023-04-01T08:32:03;16.35;;;5.55;;
51686;SDS011;37774;52.192;4.584;2023-04-01T08:35:02;24.45;;;6.53;;
51686;SDS011;37774;52.192;4.584;2023-04-01T08:37:55;14.55;;;4.65;;
51686;SDS011;37774;52.192;4.584;2023-04-01T08:40:55;20.90;;;6.43;;
51686;SDS011;37774;52.192;4.584;2023-04-01T08:43:49;20.17;;;5.88;;
51686;SDS011;37774;52.192;4.584;2023-04-01T08:46:48;28.75;;;6.03;;
51686;SDS011;37774;52.192;4.584;2023-04-01T08:50:05;21.15;;;7.03;;
51686;SDS011;37774;52.192;4.584;2023-04-01T08:53:08;26.38;;;6.93;;
51686;SDS011;37774;52.192;4.584;2023-04-01T08:56:03;24.25;;;8.55;;
51686;SDS011;37774;52.192;4.584;2023-04-01T08:58:58;27.55;;;7.97;;
51686;SDS011;37774;52.192;4.584;2023-04-01T09:02:11;22.52;;;7.47;;
51686;SDS011;37774;52.192;4.584;2023-04-01T09:05:24;25.50;;;7.13;;
51686;SDS011;37774;52.192;4.584;2023-04-01T09:08:27;15.05;;;4.43;;
51686;SDS011;37774;52.192;4.584;2023-04-01T09:11:21;13.48;;;4.95;;
51686;SDS011;37774;52.192;4.584;2023-04-01T09:14:17;12.00;;;3.33;;
51686;SDS011;37774;52.192;4.584;2023-04-01T09:17:28;15.07;;;3.55;;
51686;SDS011;37774;52.192;4.584;2023-04-01T09:20:33;11.82;;;3.85;;
51686;SDS011;37774;52.192;4.584;2023-04-01T09:23:38;7.72;;;2.95;;
51686;SDS011;37774;52.192;4.584;2023-04-01T09:26:40;10.43;;;3.58;;
51686;SDS011;37774;52.192;4.584;2023-04-01T09:29:52;12.13;;;4.13;;
51686;SDS011;37774;52.192;4.584;2023-04-01T09:33:05;11.25;;;3.55;;
51686;SDS011;37774;52.192;4.584;2023-04-01T09:36:21;8.95;;;3.47;;
51686;SDS011;37774;52.192;4.584;2023-04-01T09:39:22;13.27;;;4.25;;
51686;SDS011;37774;52.192;4.584;2023-04-01T09:45:35;21.60;;;5.28;;
51686;SDS011;37774;52.192;4.584;2023-04-01T09:48:33;18.23;;;5.75;;
51686;SDS011;37774;52.192;4.584;2023-04-01T09:51:38;20.83;;;6.32;;
51686;SDS011;37774;52.192;4.584;2023-04-01T09:54:34;17.67;;;6.63;;
51686;SDS011;37774;52.192;4.584;2023-04-01T10:07:46;20.67;;;7.15;;
51686;SDS011;37774;52.192;4.584;2023-04-01T10:11:03;24.58;;;6.65;;
51686;SDS011;37774;52.192;4.584;2023-04-01T10:14:15;20.70;;;6.97;;
51686;SDS011;37774;52.192;4.584;2023-04-01T10:17:21;20.08;;;6.55;;
51686;SDS011;37774;52.192;4.584;2023-04-01T10:20:29;19.70;;;5.47;;
51686;SDS011;37774;52.192;4.584;2023-04-01T10:23:36;24.20;;;6.70;;
51686;SDS011;37774;52.192;4.584;2023-04-01T10:26:39;13.52;;;5.22;;
51686;SDS011;37774;52.192;4.584;2023-04-01T10:36:37;19.45;;;4.95;;
51686;SDS011;37774;52.192;4.584;2023-04-01T11:03:03;21.27;;;5.30;;
51686;SDS011;37774;52.192;4.584;2023-04-01T11:06:26;13.63;;;3.78;;
51686;SDS011;37774;52.192;4.584;2023-04-01T11:09:30;14.75;;;4.70;;
51686;SDS011;37774;52.192;4.584;2023-04-01T11:12:56;24.08;;;5.45;;
51686;SDS011;37774;52.192;4.584;2023-04-01T11:16:15;17.77;;;5.97;;
51686;SDS011;37774;52.192;4.584;2023-04-01T11:26:04;25.80;;;6.75;;
51686;SDS011;37774;52.192;4.584;2023-04-01T11:29:02;22.33;;;6.65;;
51686;SDS011;37774;52.192;4.584;2023-04-01T11:32:07;23.48;;;6.80;;
51686;SDS011;37774;52.192;4.584;2023-04-01T11:38:27;22.60;;;8.05;;
51686;SDS011;37774;52.192;4.584;2023-04-01T11:41:24;22.85;;;7.05;;
51686;SDS011;37774;52.192;4.584;2023-04-01T11:44:18;19.95;;;7.32;;
51686;SDS011;37774;52.192;4.584;2023-04-01T11:47:15;29.10;;;7.90;;
51686;SDS011;37774;52.192;4.584;2023-04-01T11:50:15;17.80;;;7.22;;
51686;SDS011;37774;52.192;4.584;2023-04-01T11:53:16;19.98;;;7.05;;
51686;SDS011;37774;52.192;4.584;2023-04-01T11:56:10;25.13;;;6.85;;
51686;SDS011;37774;52.192;4.584;2023-04-01T11:59:13;26.35;;;7.78;;
51686;SDS011;37774;52.192;4.584;2023-04-01T12:02:25;18.20;;;7.07;;
51686;SDS011;37774;52.192;4.584;2023-04-01T12:05:22;24.60;;;8.18;;
51686;SDS011;37774;52.192;4.584;2023-04-01T12:08:21;27.20;;;7.78;;
51686;SDS011;37774;52.192;4.584;2023-04-01T12:11:16;23.55;;;7.68;;
51686;SDS011;37774;52.192;4.584;2023-04-01T12:14:07;30.20;;;7.25;;
51686;SDS011;37774;52.192;4.584;2023-04-01T12:17:01;33.78;;;7.18;;
51686;SDS011;37774;52.192;4.584;2023-04-01T12:19:56;25.17;;;8.25;;
51686;SDS011;37774;52.192;4.584;2023-04-01T12:22:56;24.83;;;8.18;;
51686;SDS011;37774;52.192;4.584;2023-04-01T12:26:00;40.63;;;8.35;;
51686;SDS011;37774;52.192;4.584;2023-04-01T12:29:08;28.52;;;5.80;;
51686;SDS011;37774;52.192;4.584;2023-04-01T12:32:09;19.52;;;5.07;;
51686;SDS011;37774;52.192;4.584;2023-04-01T12:35:17;17.92;;;5.65;;
51686;SDS011;37774;52.192;4.584;2023-04-01T12:38:10;19.23;;;6.25;;
51686;SDS011;37774;52.192;4.584;2023-04-01T12:41:07;13.07;;;5.30;;
51686;SDS011;37774;52.192;4.584;2023-04-01T12:44:07;18.30;;;5.90;;
51686;SDS011;37774;52.192;4.584;2023-04-01T12:47:16;15.15;;;4.57;;
51686;SDS011;37774;52.192;4.584;2023-04-01T12:53:15;12.85;;;3.63;;
51686;SDS011;37774;52.192;4.584;2023-04-01T12:56:19;25.33;;;4.60;;
51686;SDS011;37774;52.192;4.584;2023-04-01T12:59:27;20.85;;;3.72;;
51686;SDS011;37774;52.192;4.584;2023-04-01T13:02:32;13.07;;;3.17;;
51686;SDS011;37774;52.192;4.584;2023-04-01T13:05:39;8.13;;;2.58;;
51686;SDS011;37774;52.192;4.584;2023-04-01T13:08:52;8.93;;;3.33;;
51686;SDS011;37774;52.192;4.584;2023-04-01T13:11:47;7.90;;;2.78;;
51686;SDS011;37774;52.192;4.584;2023-04-01T13:14:54;22.40;;;3.42;;
51686;SDS011;37774;52.192;4.584;2023-04-01T13:17:56;10.60;;;3.33;;
51686;SDS011;37774;52.192;4.584;2023-04-01T13:20:50;16.55;;;3.80;;
51686;SDS011;37774;52.192;4.584;2023-04-01T13:23:49;16.20;;;3.30;;
51686;SDS011;37774;52.192;4.584;2023-04-01T13:26:45;10.85;;;3.70;;
51686;SDS011;37774;52.192;4.584;2023-04-01T13:29:43;11.43;;;3.20;;
51686;SDS011;37774;52.192;4.584;2023-04-01T13:32:36;14.15;;;2.42;;
51686;SDS011;37774;52.192;4.584;2023-04-01T13:35:36;14.48;;;3.13;;
51686;SDS011;37774;52.192;4.584;2023-04-01T13:38:35;10.05;;;3.25;;
51686;SDS011;37774;52.192;4.584;2023-04-01T13:41:34;19.30;;;3.30;;
51686;SDS011;37774;52.192;4.584;2023-04-01T13:44:29;16.65;;;4.25;;
51686;SDS011;37774;52.192;4.584;2023-04-01T13:47:38;11.13;;;2.95;;
51686;SDS011;37774;52.192;4.584;2023-04-01T13:50:52;13.73;;;3.50;;
51686;SDS011;37774;52.192;4.584;2023-04-01T13:54:10;16.27;;;3.22;;
51686;SDS011;37774;52.192;4.584;2023-04-01T13:57:22;15.52;;;3.25;;
51686;SDS011;37774;52.192;4.584;2023-04-01T14:00:38;11.43;;;3.63;;
51686;SDS011;37774;52.192;4.584;2023-04-01T14:03:49;21.17;;;3.50;;
51686;SDS011;37774;52.192;4.584;2023-04-01T14:07:07;18.73;;;3.38;;
51686;SDS011;37774;52.192;4.584;2023-04-01T14:10:05;10.65;;;2.47;;
51686;SDS011;37774;52.192;4.584;2023-04-01T14:13:05;13.70;;;3.15;;
51686;SDS011;37774;52.192;4.584;2023-04-01T14:16:10;11.95;;;3.03;;
51686;SDS011;37774;52.192;4.584;2023-04-01T14:19:15;17.02;;;3.95;;
51686;SDS011;37774;52.192;4.584;2023-04-01T14:22:17;13.38;;;3.30;;
51686;SDS011;37774;52.192;4.584;2023-04-01T14:25:21;11.52;;;2.75;;
51686;SDS011;37774;52.192;4.584;2023-04-01T14:28:18;13.95;;;5.18;;
51686;SDS011;37774;52.192;4.584;2023-04-01T14:31:17;14.00;;;3.25;;
51686;SDS011;37774;52.192;4.584;2023-04-01T14:34:22;11.02;;;3.33;;
51686;SDS011;37774;52.192;4.584;2023-04-01T14:37:22;17.58;;;4.18;;
51686;SDS011;37774;52.192;4.584;2023-04-01T14:40:22;14.85;;;3.63;;
51686;SDS011;37774;52.192;4.584;2023-04-01T14:43:25;11.95;;;4.05;;
51686;SDS011;37774;52.192;4.584;2023-04-01T14:49:37;7.15;;;3.53;;
51686;SDS011;37774;52.192;4.584;2023-04-01T14:52:26;6.10;;;3.20;;
51686;SDS011;37774;52.192;4.584;2023-04-01T14:55:21;5.10;;;2.85;;
51686;SDS011;37774;52.192;4.584;2023-04-01T14:58:15;7.22;;;3.42;;
51686;SDS011;37774;52.192;4.584;2023-04-01T15:01:07;7.78;;;4.15;;
51686;SDS011;37774;52.192;4.584;2023-04-01T15:04:08;6.38;;;3.63;;
51686;SDS011;37774;52.192;4.584;2023-04-01T15:07:20;6.72;;;3.85;;
51686;SDS011;37774;52.192;4.584;2023-04-01T15:10:21;11.05;;;4.60;;
51686;SDS011;37774;52.192;4.584;2023-04-01T15:13:23;10.80;;;4.68;;
51686;SDS011;37774;52.192;4.584;2023-04-01T15:16:24;7.00;;;3.00;;
51686;SDS011;37774;52.192;4.584;2023-04-01T15:19:15;7.82;;;3.28;;
51686;SDS011;37774;52.192;4.584;2023-04-01T15:22:15;5.43;;;3.15;;
51686;SDS011;37774;52.192;4.584;2023-04-01T15:25:26;12.48;;;4.85;;
51686;SDS011;37774;52.192;4.584;2023-04-01T15:28:24;10.05;;;5.20;;
51686;SDS011;37774;52.192;4.584;2023-04-01T15:31:18;9.50;;;4.95;;
51686;SDS011;37774;52.192;4.584;2023-04-01T15:34:19;10.55;;;4.95;;
51686;SDS011;37774;52.192;4.584;2023-04-01T15:37:13;12.50;;;5.55;;
51686;SDS011;37774;52.192;4.584;2023-04-01T15:40:07;6.70;;;4.22;;
51686;SDS011;37774;52.192;4.584;2023-04-01T15:43:09;9.63;;;5.15;;
51686;SDS011;37774;52.192;4.584;2023-04-01T15:46:14;10.90;;;5.78;;
51686;SDS011;37774;52.192;4.584;2023-04-01T15:49:13;13.80;;;4.80;;
51686;SDS011;37774;52.192;4.584;2023-04-01T15:52:10;11.52;;;5.93;;
51686;SDS011;37774;52.192;4.584;2023-04-01T15:55:10;13.85;;;5.53;;
51686;SDS011;37774;52.192;4.584;2023-04-01T15:58:14;13.82;;;5.53;;
51686;SDS011;37774;52.192;4.584;2023-04-01T16:01:15;14.10;;;4.90;;
51686;SDS011;37774;52.192;4.584;2023-04-01T16:04:20;8.18;;;4.60;;
51686;SDS011;37774;52.192;4.584;2023-04-01T16:07:23;10.48;;;4.93;;
51686;SDS011;37774;52.192;4.584;2023-04-01T16:10:36;6.95;;;3.70;;
51686;SDS011;37774;52.192;4.584;2023-04-01T16:16:31;12.02;;;3.47;;
51686;SDS011;37774;52.192;4.584;2023-04-01T16:19:32;7.80;;;3.97;;
51686;SDS011;37774;52.192;4.584;2023-04-01T16:22:27;7.75;;;4.05;;
51686;SDS011;37774;52.192;4.584;2023-04-01T16:25:19;8.05;;;4.20;;
51686;SDS011;37774;52.192;4.584;2023-04-01T16:28:18;8.80;;;4.13;;
51686;SDS011;37774;52.192;4.584;2023-04-01T16:31:10;9.85;;;4.63;;
51686;SDS011;37774;52.192;4.584;2023-04-01T16:34:02;8.00;;;4.38;;
51686;SDS011;37774;52.192;4.584;2023-04-01T16:36:54;8.15;;;4.57;;
51686;SDS011;37774;52.192;4.584;2023-04-01T16:39:46;13.43;;;4.53;;
51686;SDS011;37774;52.192;4.584;2023-04-01T16:42:40;8.43;;;4.57;;
51686;SDS011;37774;52.192;4.584;2023-04-01T16:45:33;8.00;;;4.07;;
51686;SDS011;37774;52.192;4.584;2023-04-01T16:48:27;10.38;;;4.00;;
51686;SDS011;37774;52.192;4.584;2023-04-01T16:51:19;11.60;;;5.50;;
51686;SDS011;37774;52.192;4.584;2023-04-01T16:54:05;9.98;;;4.50;;
51686;SDS011;37774;52.192;4.584;2023-04-01T16:57:02;9.40;;;4.43;;
51686;SDS011;37774;52.192;4.584;2023-04-01T16:59:58;9.65;;;4.85;;
51686;SDS011;37774;52.192;4.584;2023-04-01T17:02:49;8.90;;;4.10;;
51686;SDS011;37774;52.192;4.584;2023-04-01T17:05:48;9.27;;;4.03;;
51686;SDS011;37774;52.192;4.584;2023-04-01T17:09:02;7.22;;;3.85;;
51686;SDS011;37774;52.192;4.584;2023-04-01T17:12:01;7.70;;;3.55;;
51686;SDS011;37774;52.192;4.584;2023-04-01T17:14:54;8.40;;;3.65;;
51686;SDS011;37774;52.192;4.584;2023-04-01T17:17:50;12.00;;;4.60;;
51686;SDS011;37774;52.192;4.584;2023-04-01T17:20:40;13.27;;;4.63;;
51686;SDS011;37774;52.192;4.584;2023-04-01T17:23:30;5.10;;;3.92;;
51686;SDS011;37774;52.192;4.584;2023-04-01T17:26:24;10.75;;;5.50;;
51686;SDS011;37774;52.192;4.584;2023-04-01T17:29:19;10.77;;;4.68;;
51686;SDS011;37774;52.192;4.584;2023-04-01T17:32:13;3.42;;;2.83;;
51686;SDS011;37774;52.192;4.584;2023-04-01T17:35:12;7.40;;;3.40;;
51686;SDS011;37774;52.192;4.584;2023-04-01T17:38:07;8.05;;;4.60;;
51686;SDS011;37774;52.192;4.584;2023-04-01T17:41:06;9.02;;;4.78;;
51686;SDS011;37774;52.192;4.584;2023-04-01T17:44:03;5.88;;;4.13;;
51686;SDS011;37774;52.192;4.584;2023-04-01T17:47:10;7.05;;;4.03;;
51686;SDS011;37774;52.192;4.584;2023-04-01T17:50:18;5.13;;;3.55;;
51686;SDS011;37774;52.192;4.584;2023-04-01T17:53:14;5.65;;;3.70;;
51686;SDS011;37774;52.192;4.584;2023-04-01T17:56:09;10.23;;;5.28;;
51686;SDS011;37774;52.192;4.584;2023-04-01T18:01:53;5.75;;;3.78;;
51686;SDS011;37774;52.192;4.584;2023-04-01T18:04:53;8.68;;;3.95;;
51686;SDS011;37774;52.192;4.584;2023-04-01T18:08:03;7.10;;;3.55;;
51686;SDS011;37774;52.192;4.584;2023-04-01T18:10:57;7.18;;;4.43;;
51686;SDS011;37774;52.192;4.584;2023-04-01T18:17:25;4.70;;;3.15;;
51686;SDS011;37774;52.192;4.584;2023-04-01T18:20:34;4.68;;;3.58;;
51686;SDS011;37774;52.192;4.584;2023-04-01T18:23:29;5.10;;;3.70;;
51686;SDS011;37774;52.192;4.584;2023-04-01T18:26:21;4.30;;;2.92;;
51686;SDS011;37774;52.192;4.584;2023-04-01T18:29:13;8.90;;;3.53;;
51686;SDS011;37774;52.192;4.584;2023-04-01T18:32:21;5.45;;;3.40;;
51686;SDS011;37774;52.192;4.584;2023-04-01T18:35:26;5.57;;;2.83;;
51686;SDS011;37774;52.192;4.584;2023-04-01T18:38:15;6.40;;;3.25;;
51686;SDS011;37774;52.192;4.584;2023-04-01T18:41:10;4.60;;;3.17;;
51686;SDS011;37774;52.192;4.584;2023-04-01T18:43:59;5.72;;;3.60;;
51686;SDS011;37774;52.192;4.584;2023-04-01T18:47:03;5.35;;;3.13;;
51686;SDS011;37774;52.192;4.584;2023-04-01T18:50:02;7.53;;;3.55;;